sensor_id;sensor_type;location;lat;lon;timestamp;P1;durP1;ratioP1;P2;durP2;ratioP2
13566;SDS011;6855;48.112;11.298;2023-11-22T00:01:59;17.37;;;9.97;;
13566;SDS011;6855;48.112;11.298;2023-11-22T00:04:26;19.27;;;10.40;;
13566;SDS011;6855;48.112;11.298;2023-11-22T00:06:53;15.00;;;9.60;;
13566;SDS011;6855;48.112;11.298;2023-11-22T00:09:20;26.03;;;11.87;;
13566;SDS011;6855;48.112;11.298;2023-11-22T00:11:48;18.00;;;9.87;;
13566;SDS011;6855;48.112;11.298;2023-11-22T00:14:15;21.50;;;11.07;;
13566;SDS011;6855;48.112;11.298;2023-11-22T00:16:42;15.47;;;10.83;;
13566;SDS011;6855;48.112;11.298;2023-11-22T00:19:11;19.27;;;10.00;;
13566;SDS011;6855;48.112;11.298;2023-11-22T00:21:40;20.77;;;11.30;;
13566;SDS011;6855;48.112;11.298;2023-11-22T00:24:08;20.93;;;11.40;;
13566;SDS011;6855;48.112;11.298;2023-11-22T00:26:35;22.10;;;11.67;;
13566;SDS011;6855;48.112;11.298;2023-11-22T00:29:02;18.13;;;10.07;;
13566;SDS011;6855;48.112;11.298;2023-11-22T00:31:30;18.50;;;11.10;;
13566;SDS011;6855;48.112;11.298;2023-11-22T00:33:57;22.40;;;12.90;;
13566;SDS011;6855;48.112;11.298;2023-11-22T00:36:25;25.27;;;12.20;;
13566;SDS011;6855;48.112;11.298;2023-11-22T00:38:54;19.37;;;11.30;;
13566;SDS011;6855;48.112;11.298;2023-11-22T00:41:21;17.23;;;11.07;;
13566;SDS011;6855;48.112;11.298;2023-11-22T00:43:48;21.43;;;11.30;;
13566;SDS011;6855;48.112;11.298;2023-11-22T00:46:15;17.33;;;10.80;;
13566;SDS011;6855;48.112;11.298;2023-11-22T00:48:42;19.60;;;10.97;;
13566;SDS011;6855;48.112;11.298;2023-11-22T00:51:10;26.20;;;11.70;;
13566;SDS011;6855;48.112;11.298;2023-11-22T00:53:39;19.90;;;12.03;;
13566;SDS011;6855;48.112;11.298;2023-11-22T00:56:06;23.20;;;11.77;;
13566;SDS011;6855;48.112;11.298;2023-11-22T00:58:33;26.73;;;12.40;;
13566;SDS011;6855;48.112;11.298;2023-11-22T01:01:00;21.33;;;12.63;;
13566;SDS011;6855;48.112;11.298;2023-11-22T01:03:28;22.80;;;12.10;;
13566;SDS011;6855;48.112;11.298;2023-11-22T01:05:55;21.50;;;11.33;;
13566;SDS011;6855;48.112;11.298;2023-11-22T01:08:23;23.37;;;12.70;;
13566;SDS011;6855;48.112;11.298;2023-11-22T01:10:51;20.10;;;11.90;;
13566;SDS011;6855;48.112;11.298;2023-11-22T01:13:18;22.10;;;12.40;;
13566;SDS011;6855;48.112;11.298;2023-11-22T01:15:47;23.40;;;12.90;;
13566;SDS011;6855;48.112;11.298;2023-11-22T01:18:14;19.60;;;11.50;;
13566;SDS011;6855;48.112;11.298;2023-11-22T01:20:41;26.70;;;12.33;;
13566;SDS011;6855;48.112;11.298;2023-11-22T01:23:10;26.70;;;13.33;;
13566;SDS011;6855;48.112;11.298;2023-11-22T01:25:37;27.73;;;13.53;;
13566;SDS011;6855;48.112;11.298;2023-11-22T01:28:06;19.13;;;12.70;;
13566;SDS011;6855;48.112;11.298;2023-11-22T01:30:36;20.40;;;12.27;;
13566;SDS011;6855;48.112;11.298;2023-11-22T01:33:04;20.57;;;12.90;;
13566;SDS011;6855;48.112;11.298;2023-11-22T01:35:31;19.50;;;11.90;;
13566;SDS011;6855;48.112;11.298;2023-11-22T01:37:58;22.00;;;12.80;;
13566;SDS011;6855;48.112;11.298;2023-11-22T01:40:27;23.07;;;11.47;;
13566;SDS011;6855;48.112;11.298;2023-11-22T01:42:54;22.43;;;11.80;;
13566;SDS011;6855;48.112;11.298;2023-11-22T01:45:22;21.43;;;11.90;;
13566;SDS011;6855;48.112;11.298;2023-11-22T01:47:50;21.17;;;12.47;;
13566;SDS011;6855;48.112;11.298;2023-11-22T01:50:17;22.30;;;11.67;;
13566;SDS011;6855;48.112;11.298;2023-11-22T01:52:44;19.07;;;12.10;;
13566;SDS011;6855;48.112;11.298;2023-11-22T01:55:12;17.13;;;10.87;;
13566;SDS011;6855;48.112;11.298;2023-11-22T01:57:41;21.90;;;11.50;;
13566;SDS011;6855;48.112;11.298;2023-11-22T02:00:08;20.93;;;11.43;;
13566;SDS011;6855;48.112;11.298;2023-11-22T02:02:41;25.37;;;12.23;;
13566;SDS011;6855;48.112;11.298;2023-11-22T02:05:08;25.10;;;11.27;;
13566;SDS011;6855;48.112;11.298;2023-11-22T02:07:37;22.03;;;11.23;;
13566;SDS011;6855;48.112;11.298;2023-11-22T02:10:06;22.53;;;12.37;;
13566;SDS011;6855;48.112;11.298;2023-11-22T02:12:33;22.17;;;12.47;;
13566;SDS011;6855;48.112;11.298;2023-11-22T02:15:00;15.53;;;10.50;;
13566;SDS011;6855;48.112;11.298;2023-11-22T02:17:28;22.20;;;12.80;;
13566;SDS011;6855;48.112;11.298;2023-11-22T02:19:57;27.40;;;11.63;;
13566;SDS011;6855;48.112;11.298;2023-11-22T02:22:24;20.57;;;11.00;;
13566;SDS011;6855;48.112;11.298;2023-11-22T02:24:53;20.83;;;12.50;;
13566;SDS011;6855;48.112;11.298;2023-11-22T02:27:20;19.23;;;12.07;;
13566;SDS011;6855;48.112;11.298;2023-11-22T02:29:47;10.60;;;6.63;;
13566;SDS011;6855;48.112;11.298;2023-11-22T02:32:15;9.23;;;5.70;;
13566;SDS011;6855;48.112;11.298;2023-11-22T02:34:43;15.83;;;5.80;;
13566;SDS011;6855;48.112;11.298;2023-11-22T02:37:11;5.43;;;4.67;;
13566;SDS011;6855;48.112;11.298;2023-11-22T02:39:41;5.30;;;4.27;;
13566;SDS011;6855;48.112;11.298;2023-11-22T02:42:11;5.53;;;4.13;;
13566;SDS011;6855;48.112;11.298;2023-11-22T02:44:39;5.03;;;3.93;;
13566;SDS011;6855;48.112;11.298;2023-11-22T02:47:06;3.87;;;3.47;;
13566;SDS011;6855;48.112;11.298;2023-11-22T02:49:35;4.50;;;3.93;;
13566;SDS011;6855;48.112;11.298;2023-11-22T02:52:02;5.97;;;4.60;;
13566;SDS011;6855;48.112;11.298;2023-11-22T02:54:31;6.03;;;4.13;;
13566;SDS011;6855;48.112;11.298;2023-11-22T02:56:59;4.77;;;3.73;;
13566;SDS011;6855;48.112;11.298;2023-11-22T02:59:28;5.43;;;4.40;;
13566;SDS011;6855;48.112;11.298;2023-11-22T03:01:55;6.87;;;4.23;;
13566;SDS011;6855;48.112;11.298;2023-11-22T03:04:22;3.70;;;2.80;;
13566;SDS011;6855;48.112;11.298;2023-11-22T03:06:49;3.80;;;2.90;;
13566;SDS011;6855;48.112;11.298;2023-11-22T03:09:16;4.27;;;2.80;;
13566;SDS011;6855;48.112;11.298;2023-11-22T03:11:44;3.47;;;2.73;;
13566;SDS011;6855;48.112;11.298;2023-11-22T03:14:11;6.73;;;2.70;;
13566;SDS011;6855;48.112;11.298;2023-11-22T03:16:40;3.20;;;2.90;;
13566;SDS011;6855;48.112;11.298;2023-11-22T03:19:07;3.43;;;2.67;;
13566;SDS011;6855;48.112;11.298;2023-11-22T03:21:33;3.80;;;2.73;;
13566;SDS011;6855;48.112;11.298;2023-11-22T03:24:01;4.87;;;3.07;;
13566;SDS011;6855;48.112;11.298;2023-11-22T03:26:29;3.17;;;2.87;;
13566;SDS011;6855;48.112;11.298;2023-11-22T03:28:56;5.40;;;2.80;;
13566;SDS011;6855;48.112;11.298;2023-11-22T03:31:24;3.47;;;2.80;;
13566;SDS011;6855;48.112;11.298;2023-11-22T03:33:52;3.43;;;2.70;;
13566;SDS011;6855;48.112;11.298;2023-11-22T03:36:19;3.63;;;2.77;;
13566;SDS011;6855;48.112;11.298;2023-11-22T03:38:47;5.17;;;2.30;;
13566;SDS011;6855;48.112;11.298;2023-11-22T03:41:14;4.47;;;2.50;;
13566;SDS011;6855;48.112;11.298;2023-11-22T03:43:42;5.50;;;2.50;;
13566;SDS011;6855;48.112;11.298;2023-11-22T03:46:09;6.10;;;2.80;;
13566;SDS011;6855;48.112;11.298;2023-11-22T03:48:36;3.40;;;2.27;;
13566;SDS011;6855;48.112;11.298;2023-11-22T03:51:05;6.03;;;3.17;;
13566;SDS011;6855;48.112;11.298;2023-11-22T03:53:32;3.77;;;2.77;;
13566;SDS011;6855;48.112;11.298;2023-11-22T03:55:59;3.97;;;2.90;;
13566;SDS011;6855;48.112;11.298;2023-11-22T03:58:26;4.37;;;3.07;;
13566;SDS011;6855;48.112;11.298;2023-11-22T04:00:53;5.33;;;3.20;;
13566;SDS011;6855;48.112;11.298;2023-11-22T04:03:22;3.30;;;2.90;;
13566;SDS011;6855;48.112;11.298;2023-11-22T04:05:49;5.23;;;3.37;;
13566;SDS011;6855;48.112;11.298;2023-11-22T04:08:18;5.50;;;3.27;;
13566;SDS011;6855;48.112;11.298;2023-11-22T04:10:46;4.53;;;3.17;;
13566;SDS011;6855;48.112;11.298;2023-11-22T04:13:13;5.53;;;3.60;;
13566;SDS011;6855;48.112;11.298;2023-11-22T04:15:40;5.60;;;3.60;;
13566;SDS011;6855;48.112;11.298;2023-11-22T04:18:07;5.43;;;3.10;;
13566;SDS011;6855;48.112;11.298;2023-11-22T04:20:35;7.00;;;4.60;;
13566;SDS011;6855;48.112;11.298;2023-11-22T04:23:02;5.77;;;3.47;;
13566;SDS011;6855;48.112;11.298;2023-11-22T04:25:30;5.80;;;3.20;;
13566;SDS011;6855;48.112;11.298;2023-11-22T04:27:59;5.67;;;3.50;;
13566;SDS011;6855;48.112;11.298;2023-11-22T04:30:26;4.93;;;3.30;;
13566;SDS011;6855;48.112;11.298;2023-11-22T04:32:53;2.60;;;2.37;;
13566;SDS011;6855;48.112;11.298;2023-11-22T04:35:20;3.30;;;2.90;;
13566;SDS011;6855;48.112;11.298;2023-11-22T04:37:48;5.07;;;2.67;;
13566;SDS011;6855;48.112;11.298;2023-11-22T04:40:15;3.30;;;2.40;;
13566;SDS011;6855;48.112;11.298;2023-11-22T04:42:44;3.10;;;1.93;;
13566;SDS011;6855;48.112;11.298;2023-11-22T04:45:11;5.47;;;2.90;;
13566;SDS011;6855;48.112;11.298;2023-11-22T04:47:38;3.63;;;2.93;;
13566;SDS011;6855;48.112;11.298;2023-11-22T04:50:06;4.70;;;3.17;;
13566;SDS011;6855;48.112;11.298;2023-11-22T04:52:34;4.33;;;2.70;;
13566;SDS011;6855;48.112;11.298;2023-11-22T04:55:01;3.63;;;2.20;;
13566;SDS011;6855;48.112;11.298;2023-11-22T04:57:29;4.13;;;3.10;;
13566;SDS011;6855;48.112;11.298;2023-11-22T04:59:58;3.30;;;2.50;;
13566;SDS011;6855;48.112;11.298;2023-11-22T05:02:25;9.73;;;2.87;;
13566;SDS011;6855;48.112;11.298;2023-11-22T05:04:53;3.70;;;2.30;;
13566;SDS011;6855;48.112;11.298;2023-11-22T05:07:22;5.43;;;3.20;;
13566;SDS011;6855;48.112;11.298;2023-11-22T05:09:49;4.50;;;2.43;;
13566;SDS011;6855;48.112;11.298;2023-11-22T05:12:16;3.07;;;2.53;;
13566;SDS011;6855;48.112;11.298;2023-11-22T05:14:43;4.03;;;2.30;;
13566;SDS011;6855;48.112;11.298;2023-11-22T05:17:12;4.60;;;2.90;;
13566;SDS011;6855;48.112;11.298;2023-11-22T05:19:39;4.17;;;2.70;;
13566;SDS011;6855;48.112;11.298;2023-11-22T05:22:06;4.67;;;3.10;;
13566;SDS011;6855;48.112;11.298;2023-11-22T05:24:34;4.93;;;3.20;;
13566;SDS011;6855;48.112;11.298;2023-11-22T05:27:03;4.30;;;3.17;;
13566;SDS011;6855;48.112;11.298;2023-11-22T05:29:31;4.47;;;3.03;;
13566;SDS011;6855;48.112;11.298;2023-11-22T05:31:59;5.00;;;2.97;;
13566;SDS011;6855;48.112;11.298;2023-11-22T05:34:27;6.37;;;3.73;;
13566;SDS011;6855;48.112;11.298;2023-11-22T05:36:54;5.63;;;2.97;;
13566;SDS011;6855;48.112;11.298;2023-11-22T05:39:21;5.07;;;3.30;;
13566;SDS011;6855;48.112;11.298;2023-11-22T05:41:49;5.40;;;3.40;;
13566;SDS011;6855;48.112;11.298;2023-11-22T05:44:17;6.17;;;3.67;;
13566;SDS011;6855;48.112;11.298;2023-11-22T05:46:44;5.70;;;3.23;;
13566;SDS011;6855;48.112;11.298;2023-11-22T05:49:11;4.00;;;2.80;;
13566;SDS011;6855;48.112;11.298;2023-11-22T05:51:39;7.10;;;3.50;;
13566;SDS011;6855;48.112;11.298;2023-11-22T05:54:07;4.50;;;3.10;;
13566;SDS011;6855;48.112;11.298;2023-11-22T05:56:36;6.20;;;3.70;;
13566;SDS011;6855;48.112;11.298;2023-11-22T05:59:04;4.70;;;3.17;;
13566;SDS011;6855;48.112;11.298;2023-11-22T06:01:31;3.60;;;3.10;;
13566;SDS011;6855;48.112;11.298;2023-11-22T06:03:58;3.93;;;2.73;;
13566;SDS011;6855;48.112;11.298;2023-11-22T06:06:26;5.82;;;4.00;;
13566;SDS011;6855;48.112;11.298;2023-11-22T06:08:54;5.90;;;4.00;;
13566;SDS011;6855;48.112;11.298;2023-11-22T06:11:21;6.00;;;4.43;;
13566;SDS011;6855;48.112;11.298;2023-11-22T06:13:50;7.13;;;3.90;;
13566;SDS011;6855;48.112;11.298;2023-11-22T06:16:17;7.00;;;3.70;;
13566;SDS011;6855;48.112;11.298;2023-11-22T06:18:44;17.40;;;4.20;;
13566;SDS011;6855;48.112;11.298;2023-11-22T06:21:12;9.80;;;4.20;;
13566;SDS011;6855;48.112;11.298;2023-11-22T06:23:39;5.70;;;3.60;;
13566;SDS011;6855;48.112;11.298;2023-11-22T06:26:08;5.07;;;3.37;;
13566;SDS011;6855;48.112;11.298;2023-11-22T06:28:35;3.33;;;2.60;;
13566;SDS011;6855;48.112;11.298;2023-11-22T06:31:02;3.97;;;3.10;;
13566;SDS011;6855;48.112;11.298;2023-11-22T06:33:30;3.70;;;2.77;;
13566;SDS011;6855;48.112;11.298;2023-11-22T06:35:57;2.50;;;2.00;;
13566;SDS011;6855;48.112;11.298;2023-11-22T06:38:24;3.13;;;2.13;;
13566;SDS011;6855;48.112;11.298;2023-11-22T06:40:51;3.10;;;2.30;;
13566;SDS011;6855;48.112;11.298;2023-11-22T06:43:20;2.80;;;2.20;;
13566;SDS011;6855;48.112;11.298;2023-11-22T06:45:47;3.90;;;2.70;;
13566;SDS011;6855;48.112;11.298;2023-11-22T06:48:15;4.30;;;2.80;;
13566;SDS011;6855;48.112;11.298;2023-11-22T06:50:43;4.67;;;1.93;;
13566;SDS011;6855;48.112;11.298;2023-11-22T06:53:11;3.00;;;2.10;;
13566;SDS011;6855;48.112;11.298;2023-11-22T06:55:38;2.37;;;2.07;;
13566;SDS011;6855;48.112;11.298;2023-11-22T06:58:05;3.83;;;2.00;;
13566;SDS011;6855;48.112;11.298;2023-11-22T07:00:34;2.53;;;2.07;;
13566;SDS011;6855;48.112;11.298;2023-11-22T07:03:01;3.80;;;2.30;;
13566;SDS011;6855;48.112;11.298;2023-11-22T07:05:30;2.80;;;2.33;;
13566;SDS011;6855;48.112;11.298;2023-11-22T07:07:58;2.33;;;1.83;;
13566;SDS011;6855;48.112;11.298;2023-11-22T07:10:25;2.60;;;2.10;;
13566;SDS011;6855;48.112;11.298;2023-11-22T07:12:52;2.60;;;2.30;;
13566;SDS011;6855;48.112;11.298;2023-11-22T07:15:19;4.57;;;2.30;;
13566;SDS011;6855;48.112;11.298;2023-11-22T07:17:48;3.13;;;2.30;;
13566;SDS011;6855;48.112;11.298;2023-11-22T07:20:15;4.53;;;2.00;;
13566;SDS011;6855;48.112;11.298;2023-11-22T07:22:42;11.30;;;2.43;;
13566;SDS011;6855;48.112;11.298;2023-11-22T07:25:10;3.27;;;2.37;;
13566;SDS011;6855;48.112;11.298;2023-11-22T07:27:43;3.67;;;2.30;;
13566;SDS011;6855;48.112;11.298;2023-11-22T07:30:11;3.13;;;2.83;;
13566;SDS011;6855;48.112;11.298;2023-11-22T07:32:39;3.90;;;2.87;;
13566;SDS011;6855;48.112;11.298;2023-11-22T07:35:08;4.20;;;2.73;;
13566;SDS011;6855;48.112;11.298;2023-11-22T07:37:35;5.10;;;3.20;;
13566;SDS011;6855;48.112;11.298;2023-11-22T07:40:05;4.97;;;3.13;;
13566;SDS011;6855;48.112;11.298;2023-11-22T07:42:34;8.10;;;3.10;;
13566;SDS011;6855;48.112;11.298;2023-11-22T07:45:01;8.33;;;3.60;;
13566;SDS011;6855;48.112;11.298;2023-11-22T07:47:29;10.73;;;4.80;;
13566;SDS011;6855;48.112;11.298;2023-11-22T07:49:56;8.90;;;4.23;;
13566;SDS011;6855;48.112;11.298;2023-11-22T07:52:24;10.53;;;4.10;;
13566;SDS011;6855;48.112;11.298;2023-11-22T07:54:55;3.53;;;2.43;;
13566;SDS011;6855;48.112;11.298;2023-11-22T07:57:22;3.50;;;2.77;;
13566;SDS011;6855;48.112;11.298;2023-11-22T07:59:50;3.77;;;2.70;;
13566;SDS011;6855;48.112;11.298;2023-11-22T08:02:20;4.40;;;3.10;;
13566;SDS011;6855;48.112;11.298;2023-11-22T08:04:48;7.43;;;3.43;;
13566;SDS011;6855;48.112;11.298;2023-11-22T08:07:16;5.03;;;3.27;;
13566;SDS011;6855;48.112;11.298;2023-11-22T08:09:45;6.10;;;2.97;;
13566;SDS011;6855;48.112;11.298;2023-11-22T08:12:12;4.00;;;2.77;;
13566;SDS011;6855;48.112;11.298;2023-11-22T08:14:39;4.20;;;3.03;;
13566;SDS011;6855;48.112;11.298;2023-11-22T08:17:09;21.07;;;6.03;;
13566;SDS011;6855;48.112;11.298;2023-11-22T08:19:39;12.37;;;4.70;;
13566;SDS011;6855;48.112;11.298;2023-11-22T08:22:06;25.07;;;12.37;;
13566;SDS011;6855;48.112;11.298;2023-11-22T08:24:33;7.70;;;5.30;;
13566;SDS011;6855;48.112;11.298;2023-11-22T08:27:02;4.57;;;3.73;;
13566;SDS011;6855;48.112;11.298;2023-11-22T08:29:29;5.50;;;4.10;;
13566;SDS011;6855;48.112;11.298;2023-11-22T08:31:56;6.23;;;4.03;;
13566;SDS011;6855;48.112;11.298;2023-11-22T08:34:25;5.87;;;3.97;;
13566;SDS011;6855;48.112;11.298;2023-11-22T08:36:52;5.20;;;3.70;;
13566;SDS011;6855;48.112;11.298;2023-11-22T08:39:19;5.73;;;3.60;;
13566;SDS011;6855;48.112;11.298;2023-11-22T08:41:47;5.80;;;3.43;;
13566;SDS011;6855;48.112;11.298;2023-11-22T08:44:16;16.20;;;4.87;;
13566;SDS011;6855;48.112;11.298;2023-11-22T08:46:44;6.20;;;4.43;;
13566;SDS011;6855;48.112;11.298;2023-11-22T08:49:12;7.07;;;4.33;;
13566;SDS011;6855;48.112;11.298;2023-11-22T08:51:40;6.07;;;4.33;;
13566;SDS011;6855;48.112;11.298;2023-11-22T08:54:08;7.93;;;4.70;;
13566;SDS011;6855;48.112;11.298;2023-11-22T08:56:35;4.40;;;3.37;;
13566;SDS011;6855;48.112;11.298;2023-11-22T08:59:02;5.63;;;3.80;;
13566;SDS011;6855;48.112;11.298;2023-11-22T09:01:31;3.97;;;3.00;;
13566;SDS011;6855;48.112;11.298;2023-11-22T09:03:59;5.23;;;3.80;;
13566;SDS011;6855;48.112;11.298;2023-11-22T09:06:26;8.87;;;4.07;;
13566;SDS011;6855;48.112;11.298;2023-11-22T09:08:54;5.40;;;3.47;;
13566;SDS011;6855;48.112;11.298;2023-11-22T09:11:22;5.63;;;3.90;;
13566;SDS011;6855;48.112;11.298;2023-11-22T09:13:49;5.27;;;3.23;;
13566;SDS011;6855;48.112;11.298;2023-11-22T09:16:18;6.03;;;3.70;;
13566;SDS011;6855;48.112;11.298;2023-11-22T09:18:49;5.70;;;3.93;;
13566;SDS011;6855;48.112;11.298;2023-11-22T09:21:17;12.80;;;4.60;;
13566;SDS011;6855;48.112;11.298;2023-11-22T09:23:44;26.50;;;6.73;;
13566;SDS011;6855;48.112;11.298;2023-11-22T09:26:13;7.77;;;3.80;;
13566;SDS011;6855;48.112;11.298;2023-11-22T09:28:40;8.10;;;3.60;;
13566;SDS011;6855;48.112;11.298;2023-11-22T09:31:08;7.20;;;4.30;;
13566;SDS011;6855;48.112;11.298;2023-11-22T09:33:38;8.73;;;4.27;;
13566;SDS011;6855;48.112;11.298;2023-11-22T09:36:07;9.53;;;4.43;;
13566;SDS011;6855;48.112;11.298;2023-11-22T09:38:36;7.87;;;4.47;;
13566;SDS011;6855;48.112;11.298;2023-11-22T09:41:03;9.23;;;4.17;;
13566;SDS011;6855;48.112;11.298;2023-11-22T09:43:35;13.43;;;5.00;;
13566;SDS011;6855;48.112;11.298;2023-11-22T09:46:04;16.80;;;5.30;;
13566;SDS011;6855;48.112;11.298;2023-11-22T09:48:34;16.00;;;5.90;;
13566;SDS011;6855;48.112;11.298;2023-11-22T09:51:03;8.90;;;4.27;;
13566;SDS011;6855;48.112;11.298;2023-11-22T09:53:32;12.77;;;4.90;;
13566;SDS011;6855;48.112;11.298;2023-11-22T09:56:00;12.43;;;4.43;;
13566;SDS011;6855;48.112;11.298;2023-11-22T09:58:28;4.30;;;3.57;;
13566;SDS011;6855;48.112;11.298;2023-11-22T10:00:57;6.80;;;4.37;;
13566;SDS011;6855;48.112;11.298;2023-11-22T10:03:25;8.27;;;3.97;;
13566;SDS011;6855;48.112;11.298;2023-11-22T10:05:53;6.57;;;3.63;;
13566;SDS011;6855;48.112;11.298;2023-11-22T10:08:21;4.60;;;3.10;;
13566;SDS011;6855;48.112;11.298;2023-11-22T10:10:50;4.37;;;3.30;;
13566;SDS011;6855;48.112;11.298;2023-11-22T10:13:19;4.20;;;2.83;;
13566;SDS011;6855;48.112;11.298;2023-11-22T10:15:46;5.70;;;3.37;;
13566;SDS011;6855;48.112;11.298;2023-11-22T10:18:14;4.83;;;2.93;;
13566;SDS011;6855;48.112;11.298;2023-11-22T10:20:42;4.73;;;3.47;;
13566;SDS011;6855;48.112;11.298;2023-11-22T10:23:12;3.73;;;3.30;;
13566;SDS011;6855;48.112;11.298;2023-11-22T10:25:43;3.40;;;2.77;;
13566;SDS011;6855;48.112;11.298;2023-11-22T10:28:11;4.83;;;3.00;;
13566;SDS011;6855;48.112;11.298;2023-11-22T10:30:38;4.60;;;3.40;;
13566;SDS011;6855;48.112;11.298;2023-11-22T10:33:07;4.47;;;3.33;;
13566;SDS011;6855;48.112;11.298;2023-11-22T10:35:38;5.77;;;3.77;;
13566;SDS011;6855;48.112;11.298;2023-11-22T10:38:07;5.60;;;3.80;;
13566;SDS011;6855;48.112;11.298;2023-11-22T10:40:35;5.13;;;4.20;;
13566;SDS011;6855;48.112;11.298;2023-11-22T10:43:03;4.83;;;3.30;;
13566;SDS011;6855;48.112;11.298;2023-11-22T10:45:31;4.20;;;3.53;;
13566;SDS011;6855;48.112;11.298;2023-11-22T10:47:58;5.43;;;4.30;;
13566;SDS011;6855;48.112;11.298;2023-11-22T10:50:27;8.30;;;5.60;;
13566;SDS011;6855;48.112;11.298;2023-11-22T10:52:56;6.87;;;3.90;;
13566;SDS011;6855;48.112;11.298;2023-11-22T10:55:26;6.00;;;4.20;;
13566;SDS011;6855;48.112;11.298;2023-11-22T10:57:54;7.10;;;3.97;;
13566;SDS011;6855;48.112;11.298;2023-11-22T11:00:31;8.17;;;4.90;;
13566;SDS011;6855;48.112;11.298;2023-11-22T11:03:06;6.20;;;4.17;;
13566;SDS011;6855;48.112;11.298;2023-11-22T11:05:36;7.63;;;4.33;;
13566;SDS011;6855;48.112;11.298;2023-11-22T11:08:11;5.73;;;3.90;;
13566;SDS011;6855;48.112;11.298;2023-11-22T11:10:45;10.00;;;4.20;;
13566;SDS011;6855;48.112;11.298;2023-11-22T11:13:16;5.17;;;3.30;;
13566;SDS011;6855;48.112;11.298;2023-11-22T11:15:44;12.17;;;6.47;;
13566;SDS011;6855;48.112;11.298;2023-11-22T11:18:23;27.57;;;13.80;;
13566;SDS011;6855;48.112;11.298;2023-11-22T11:21:13;10.80;;;6.40;;
13566;SDS011;6855;48.112;11.298;2023-11-22T11:23:54;9.03;;;4.80;;
13566;SDS011;6855;48.112;11.298;2023-11-22T11:26:43;5.97;;;3.87;;
13566;SDS011;6855;48.112;11.298;2023-11-22T11:29:30;4.40;;;3.77;;
13566;SDS011;6855;48.112;11.298;2023-11-22T11:32:09;5.53;;;4.00;;
13566;SDS011;6855;48.112;11.298;2023-11-22T11:34:48;6.03;;;4.00;;
13566;SDS011;6855;48.112;11.298;2023-11-22T11:37:17;4.20;;;3.37;;
13566;SDS011;6855;48.112;11.298;2023-11-22T11:39:45;4.87;;;3.40;;
13566;SDS011;6855;48.112;11.298;2023-11-22T11:42:12;4.40;;;3.33;;
13566;SDS011;6855;48.112;11.298;2023-11-22T11:44:50;4.83;;;3.90;;
13566;SDS011;6855;48.112;11.298;2023-11-22T11:47:18;5.57;;;3.57;;
13566;SDS011;6855;48.112;11.298;2023-11-22T11:49:45;4.80;;;3.53;;
13566;SDS011;6855;48.112;11.298;2023-11-22T11:52:13;4.77;;;3.60;;
13566;SDS011;6855;48.112;11.298;2023-11-22T11:54:41;3.97;;;3.40;;
13566;SDS011;6855;48.112;11.298;2023-11-22T11:57:08;7.43;;;3.23;;
13566;SDS011;6855;48.112;11.298;2023-11-22T11:59:36;3.80;;;2.90;;
13566;SDS011;6855;48.112;11.298;2023-11-22T12:02:03;4.07;;;3.43;;
13566;SDS011;6855;48.112;11.298;2023-11-22T12:04:31;3.70;;;2.80;;
13566;SDS011;6855;48.112;11.298;2023-11-22T12:06:59;4.50;;;3.40;;
13566;SDS011;6855;48.112;11.298;2023-11-22T12:09:28;5.20;;;3.50;;
13566;SDS011;6855;48.112;11.298;2023-11-22T12:11:55;4.57;;;2.70;;
13566;SDS011;6855;48.112;11.298;2023-11-22T12:14:23;3.57;;;2.63;;
13566;SDS011;6855;48.112;11.298;2023-11-22T12:16:51;8.50;;;3.10;;
13566;SDS011;6855;48.112;11.298;2023-11-22T12:19:23;7.27;;;4.17;;
13566;SDS011;6855;48.112;11.298;2023-11-22T12:21:51;8.20;;;5.23;;
13566;SDS011;6855;48.112;11.298;2023-11-22T12:24:18;5.67;;;4.13;;
13566;SDS011;6855;48.112;11.298;2023-11-22T12:26:47;6.20;;;3.80;;
13566;SDS011;6855;48.112;11.298;2023-11-22T12:29:15;5.30;;;3.90;;
13566;SDS011;6855;48.112;11.298;2023-11-22T12:31:43;3.93;;;3.30;;
13566;SDS011;6855;48.112;11.298;2023-11-22T12:34:11;8.33;;;5.33;;
13566;SDS011;6855;48.112;11.298;2023-11-22T12:36:40;6.40;;;4.37;;
13566;SDS011;6855;48.112;11.298;2023-11-22T12:39:08;5.30;;;3.80;;
13566;SDS011;6855;48.112;11.298;2023-11-22T12:41:41;5.43;;;3.63;;
13566;SDS011;6855;48.112;11.298;2023-11-22T12:44:10;5.10;;;3.77;;
13566;SDS011;6855;48.112;11.298;2023-11-22T12:46:46;4.63;;;3.13;;
13566;SDS011;6855;48.112;11.298;2023-11-22T12:49:15;3.70;;;3.30;;
13566;SDS011;6855;48.112;11.298;2023-11-22T12:51:50;5.63;;;3.60;;
13566;SDS011;6855;48.112;11.298;2023-11-22T12:54:18;4.93;;;3.20;;
13566;SDS011;6855;48.112;11.298;2023-11-22T12:56:47;5.17;;;3.37;;
13566;SDS011;6855;48.112;11.298;2023-11-22T12:59:16;4.10;;;3.40;;
13566;SDS011;6855;48.112;11.298;2023-11-22T13:01:44;4.50;;;3.30;;
13566;SDS011;6855;48.112;11.298;2023-11-22T13:04:12;5.27;;;3.57;;
13566;SDS011;6855;48.112;11.298;2023-11-22T13:06:39;4.97;;;3.47;;
13566;SDS011;6855;48.112;11.298;2023-11-22T13:09:06;3.70;;;2.90;;
13566;SDS011;6855;48.112;11.298;2023-11-22T13:11:39;7.50;;;4.40;;
13566;SDS011;6855;48.112;11.298;2023-11-22T13:14:06;5.50;;;3.80;;
13566;SDS011;6855;48.112;11.298;2023-11-22T13:16:35;6.00;;;3.73;;
13566;SDS011;6855;48.112;11.298;2023-11-22T13:19:04;5.10;;;3.80;;
13566;SDS011;6855;48.112;11.298;2023-11-22T13:21:32;4.83;;;3.17;;
13566;SDS011;6855;48.112;11.298;2023-11-22T13:23:59;5.83;;;3.70;;
13566;SDS011;6855;48.112;11.298;2023-11-22T13:26:26;4.40;;;3.57;;
13566;SDS011;6855;48.112;11.298;2023-11-22T13:28:53;4.83;;;3.60;;
13566;SDS011;6855;48.112;11.298;2023-11-22T13:31:21;4.37;;;3.53;;
13566;SDS011;6855;48.112;11.298;2023-11-22T13:33:50;5.77;;;3.90;;
13566;SDS011;6855;48.112;11.298;2023-11-22T13:36:17;5.40;;;3.33;;
13566;SDS011;6855;48.112;11.298;2023-11-22T13:38:45;5.17;;;3.90;;
13566;SDS011;6855;48.112;11.298;2023-11-22T13:41:12;4.27;;;3.60;;
13566;SDS011;6855;48.112;11.298;2023-11-22T13:43:39;4.87;;;3.60;;
13566;SDS011;6855;48.112;11.298;2023-11-22T13:46:07;5.40;;;3.90;;
13566;SDS011;6855;48.112;11.298;2023-11-22T13:48:35;4.60;;;3.80;;
13566;SDS011;6855;48.112;11.298;2023-11-22T13:51:04;4.93;;;4.03;;
13566;SDS011;6855;48.112;11.298;2023-11-22T13:53:33;4.63;;;3.70;;
13566;SDS011;6855;48.112;11.298;2023-11-22T13:56:03;5.50;;;3.40;;
13566;SDS011;6855;48.112;11.298;2023-11-22T13:58:34;10.77;;;5.60;;
13566;SDS011;6855;48.112;11.298;2023-11-22T14:01:01;4.83;;;3.77;;
13566;SDS011;6855;48.112;11.298;2023-11-22T14:03:31;6.43;;;4.57;;
13566;SDS011;6855;48.112;11.298;2023-11-22T14:05:58;3.90;;;3.30;;
13566;SDS011;6855;48.112;11.298;2023-11-22T14:08:27;3.80;;;3.10;;
13566;SDS011;6855;48.112;11.298;2023-11-22T14:10:54;4.03;;;3.40;;
13566;SDS011;6855;48.112;11.298;2023-11-22T14:13:21;4.20;;;3.20;;
13566;SDS011;6855;48.112;11.298;2023-11-22T14:15:48;5.20;;;3.77;;
13566;SDS011;6855;48.112;11.298;2023-11-22T14:18:16;4.87;;;3.97;;
13566;SDS011;6855;48.112;11.298;2023-11-22T14:20:43;4.50;;;3.23;;
13566;SDS011;6855;48.112;11.298;2023-11-22T14:23:10;3.63;;;3.10;;
13566;SDS011;6855;48.112;11.298;2023-11-22T14:25:39;4.50;;;3.47;;
13566;SDS011;6855;48.112;11.298;2023-11-22T14:28:06;5.60;;;2.83;;
13566;SDS011;6855;48.112;11.298;2023-11-22T14:30:36;4.83;;;3.63;;
13566;SDS011;6855;48.112;11.298;2023-11-22T14:33:03;5.90;;;4.13;;
13566;SDS011;6855;48.112;11.298;2023-11-22T14:35:32;5.67;;;3.80;;
13566;SDS011;6855;48.112;11.298;2023-11-22T14:38:01;8.30;;;3.70;;
13566;SDS011;6855;48.112;11.298;2023-11-22T14:40:31;3.83;;;3.40;;
13566;SDS011;6855;48.112;11.298;2023-11-22T14:43:02;5.13;;;3.70;;
13566;SDS011;6855;48.112;11.298;2023-11-22T14:45:32;5.97;;;3.53;;
13566;SDS011;6855;48.112;11.298;2023-11-22T14:47:59;4.50;;;3.40;;
13566;SDS011;6855;48.112;11.298;2023-11-22T14:50:27;5.30;;;4.10;;